Главная страница
METAR-TAF:

METAR-TAF

Аэропорты :

Latrobe, Пенсильвания, США

широта: 40-17N, долгота: 079-24W, высота над уровнем моря: 361 м

Текущие метеонаблюдения

Эта сводка был подготовлена 35 минут назад, в 21:51 UTC
Штиль
Температура -4°C
Влажность 54%
Давление 1027 hPa
Видимость: 16.1 км
ясное небо

METAR: KLBE 132151Z 00000KT 10SM SKC M04/M12 A3033

Время: 17:26 (22:26 UTC)

Прогноз

Эта сводка был подготовлена 5 часа и 1 минут назад, в 17:25 UTC
Прогноз действительный с 13-го 18 UTC до 14-го 18 UTC
Ветер 6 Узел от юго-западный
Видимость: 10 км
Рассеянная облачность на высоте 20000 фута
С 13-го 2300 UTC
Ветер 3 Узел переменных направлений
Видимость: 10 км
Рассеянная облачность на высоте 15000 фута
С 14-го 1100 UTC
Ветер 6 Узел от южный
Видимость: 10 км
Рассеянная облачность на высоте 15000 фута

TAF: KLBE 131725Z 1318/1418 22006KT P6SM BKN200 FM132300 VRB03KT P6SM BKN150 FM141100 19006KT P6SM BKN150

Метеонаблюдения и прогнозы для более 4000 аэропортов (сводки METAR и TAF).

Имеющиеся станции представлены на карте желтыми и красными точками.

Чтобы увидеть название станции, наведите на нее мышь.

Затем щелкните, чтобы увидеть метеонаблюдения и метеопрогнозы.

Управление картой: чтобы увеличить масштаб, щелкните зеленые кнопки с черным крестиком; чтобы уменьшить масштаб, щелкните зеленую кнопку с тире; для просмотра соседних карт щелкайте зеленые стрелки.


METAR-TAF: